Time;durP1;ratioP1;P1;durP2;ratioP2;P2;SDS_P1;SDS_P2;PMS_P1;PMS_P2;Temp;Humidity;BMP_temperature;BMP_pressure;BME280_temperature;BME280_humidity;BME280_pressure;Samples;Min_cycle;Max_cycle;Signal;HPM_P1;HPM_P2
2022/09/12 00:00:21;;;;;;;6.88;6.15;;;;;;;20.70;100.00;100351.78;4993177;28;20387;-82
2022/09/12 00:02:51;;;;;;;9.35;6.65;;;;;;;20.78;100.00;100351.75;4993126;28;20036;-82
2022/09/12 00:05:16;;;;;;;9.30;6.40;;;;;;;20.79;100.00;100348.06;4993177;28;20030;-82
2022/09/12 00:07:42;;;;;;;8.93;6.72;;;;;;;20.94;100.00;100346.34;5009187;28;20026;-82
2022/09/12 00:10:07;;;;;;;7.38;5.00;;;;;;;20.96;100.00;100352.34;5012300;28;20033;-82
2022/09/12 00:12:33;;;;;;;9.95;5.65;;;;;;;20.90;100.00;100347.69;5012510;28;20029;-83
2022/09/12 00:14:58;;;;;;;9.90;5.22;;;;;;;20.93;100.00;100352.69;5012749;28;20110;-82
2022/09/12 00:17:24;;;;;;;9.63;6.38;;;;;;;20.92;100.00;100348.34;5012444;28;20121;-83
2022/09/12 00:19:49;;;;;;;9.60;5.35;;;;;;;20.94;100.00;100337.50;5012561;28;20534;-82
2022/09/12 00:22:14;;;;;;;10.57;5.72;;;;;;;20.88;100.00;100336.38;4996615;28;20034;-82
2022/09/12 00:24:40;;;;;;;8.82;5.18;;;;;;;20.86;100.00;100334.88;4998519;28;20491;-82
2022/09/12 00:27:05;;;;;;;9.90;5.35;;;;;;;20.82;100.00;100326.38;5012338;28;20368;-82
2022/09/12 00:29:30;;;;;;;10.13;5.68;;;;;;;20.79;100.00;100322.25;5012628;28;20502;-82
2022/09/12 00:31:56;;;;;;;6.68;5.45;;;;;;;20.77;100.00;100326.91;5012398;28;20069;-83
2022/09/12 00:34:21;;;;;;;8.70;5.80;;;;;;;20.76;100.00;100322.56;5012484;28;20045;-83
2022/09/12 00:36:46;;;;;;;6.47;4.65;;;;;;;20.77;100.00;100318.91;5010103;28;20080;-83
2022/09/12 00:39:15;;;;;;;8.65;4.50;;;;;;;20.78;100.00;100315.22;5011968;28;20038;-82
2022/09/12 00:41:41;;;;;;;5.85;5.05;;;;;;;20.75;100.00;100314.72;5012300;28;20392;-83
2022/09/12 00:44:09;;;;;;;8.00;5.07;;;;;;;20.73;100.00;100322.06;5012162;28;20025;-83
2022/09/12 00:46:42;;;;;;;6.45;5.32;;;;;;;20.74;100.00;100323.75;5012182;28;20459;-83
2022/09/12 00:49:17;;;;;;;6.75;4.47;;;;;;;20.63;100.00;100327.59;5012305;28;20026;-83
2022/09/12 00:51:48;;;;;;;7.63;4.70;;;;;;;20.57;100.00;100321.09;5000544;28;20032;-83
2022/09/12 00:54:27;;;;;;;8.38;5.53;;;;;;;20.53;100.00;100317.09;5006640;28;20030;-82
2022/09/12 00:56:56;;;;;;;10.27;6.15;;;;;;;20.55;100.00;100315.09;5011909;28;20033;-82
2022/09/12 00:59:31;;;;;;;8.45;6.30;;;;;;;20.56;100.00;100308.78;5011954;28;20028;-82
2022/09/12 01:01:56;;;;;;;8.18;5.55;;;;;;;20.50;100.00;100305.97;5011918;28;20029;-82
2022/09/12 01:04:23;;;;;;;9.30;5.43;;;;;;;20.36;100.00;100310.19;5011867;28;20025;-83
2022/09/12 01:06:49;;;;;;;6.28;4.50;;;;;;;20.28;100.00;100312.84;5012009;28;20425;-83
2022/09/12 01:09:20;;;;;;;6.93;4.85;;;;;;;20.23;100.00;100304.53;5000007;28;20117;-82
2022/09/12 01:11:47;;;;;;;6.37;5.77;;;;;;;20.08;100.00;100299.88;5012001;28;20053;-83
2022/09/12 01:14:16;;;;;;;8.93;5.82;;;;;;;20.09;100.00;100301.53;5011941;28;20433;-83
2022/09/12 01:16:43;;;;;;;11.65;6.47;;;;;;;20.06;100.00;100301.03;5011945;28;20092;-83
2022/09/12 01:19:36;;;;;;;11.45;5.93;;;;;;;20.09;100.00;100293.56;5011906;28;20030;-83
2022/09/12 01:22:23;;;;;;;7.18;5.43;;;;;;;20.04;100.00;100301.22;5009793;28;20049;-83
2022/09/12 01:25:13;;;;;;;5.43;4.82;;;;;;;20.05;100.00;100294.88;5004563;28;20048;-83
2022/09/12 01:27:55;;;;;;;12.10;8.32;;;;;;;19.88;100.00;100286.06;5011517;28;20480;-82
2022/09/12 01:30:23;;;;;;;10.95;6.80;;;;;;;19.81;100.00;100291.25;5010381;28;20462;-83
2022/09/12 01:33:03;;;;;;;11.10;6.15;;;;;;;19.90;100.00;100280.56;5011823;28;20110;-82
2022/09/12 01:35:49;;;;;;;10.50;6.38;;;;;;;19.82;100.00;100284.06;5011669;28;20029;-83
2022/09/12 01:38:35;;;;;;;8.63;6.38;;;;;;;19.96;100.00;100280.75;4999806;28;20034;-82
2022/09/12 01:41:09;;;;;;;6.65;5.55;;;;;;;19.86;100.00;100281.91;5011615;28;20096;-82
2022/09/12 01:43:47;;;;;;;8.25;5.80;;;;;;;19.92;100.00;100278.56;5011660;28;20387;-82
2022/09/12 01:46:20;;;;;;;8.02;6.57;;;;;;;19.89;100.00;100268.28;5011640;28;20037;-82
2022/09/12 01:49:01;;;;;;;10.50;7.25;;;;;;;19.95;100.00;100281.75;5011562;28;20037;-82
2022/09/12 01:51:56;;;;;;;7.85;6.22;;;;;;;19.99;100.00;100274.25;5010656;28;20030;-82
2022/09/12 01:54:28;;;;;;;7.75;5.80;;;;;;;19.92;100.00;100268.75;5011296;28;20029;-82
2022/09/12 01:56:58;;;;;;;9.20;5.43;;;;;;;19.91;100.00;100260.94;5011171;28;20026;-82
2022/09/12 01:59:37;;;;;;;8.48;5.93;;;;;;;19.89;100.00;100268.28;5011930;28;20033;-82
2022/09/12 02:02:12;;;;;;;8.48;4.65;;;;;;;19.92;100.00;100257.25;5015002;28;20464;-82
2022/09/12 02:04:50;;;;;;;6.38;4.78;;;;;;;19.96;100.00;100261.25;5014988;28;20069;-82
2022/09/12 02:07:25;;;;;;;5.85;4.57;;;;;;;19.93;100.00;100258.94;5004840;28;20065;-82
2022/09/12 02:09:58;;;;;;;7.55;5.30;;;;;;;19.97;100.00;100263.75;5014200;28;20388;-82
2022/09/12 02:12:31;;;;;;;9.30;5.57;;;;;;;19.95;100.00;100254.28;5015065;28;20017;-83
2022/09/12 02:15:02;;;;;;;8.00;5.72;;;;;;;19.84;100.00;100250.09;5015208;28;20105;-82
2022/09/12 02:17:29;;;;;;;9.88;6.20;;;;;;;19.79;100.00;100250.63;5014544;28;20102;-82
2022/09/12 02:20:02;;;;;;;7.35;5.53;;;;;;;19.81;100.00;100253.13;5014569;28;20038;-82
2022/09/12 02:22:30;;;;;;;8.50;5.90;;;;;;;19.80;100.00;100249.59;5008658;28;20038;-82
2022/09/12 02:24:59;;;;;;;8.30;5.43;;;;;;;19.79;100.00;100247.97;5014537;28;20029;-82
2022/09/12 02:27:50;;;;;;;6.88;5.63;;;;;;;19.85;100.00;100253.63;5014828;28;20128;-82
2022/09/12 02:30:18;;;;;;;;;;;;;;;19.85;100.00;100243.78;5014946;28;20538;-82
2022/09/12 02:33:31;;;;;;;10.23;5.38;;;;;;;19.84;100.00;100231.44;5014570;28;20283;-82
2022/09/12 02:36:14;;;;;;;11.75;8.68;;;;;;;19.84;100.00;100230.63;4995125;28;20031;-82
2022/09/12 02:38:45;;;;;;;8.88;6.60;;;;;;;19.84;100.00;100226.13;4994645;28;20038;-82
2022/09/12 02:41:15;;;;;;;12.48;7.07;;;;;;;19.70;100.00;100222.28;4994649;28;20026;-82
2022/09/12 02:43:40;;;;;;;8.88;6.95;;;;;;;19.73;100.00;100218.50;4994726;28;20037;-82
2022/09/12 02:46:09;;;;;;;8.85;6.15;;;;;;;19.71;100.00;100216.00;4994650;28;20389;-82
2022/09/12 02:48:38;;;;;;;9.82;5.85;;;;;;;19.72;100.00;100212.31;4998943;28;20021;-82
2022/09/12 02:51:04;;;;;;;10.73;6.82;;;;;;;19.79;100.00;100213.31;5013099;28;20033;-82
2022/09/12 02:53:30;;;;;;;9.77;6.28;;;;;;;19.85;100.00;100208.34;5014058;28;20030;-82
2022/09/12 02:55:56;;;;;;;8.65;5.65;;;;;;;19.85;100.00;100211.81;5013796;28;20034;-82
2022/09/12 02:58:26;;;;;;;10.10;7.45;;;;;;;19.92;100.00;100211.97;5014053;28;20029;-82
2022/09/12 03:01:15;;;;;;;8.30;6.97;;;;;;;19.91;100.00;100210.31;5000139;28;20157;-82
2022/09/12 03:04:01;;;;;;;9.75;7.20;;;;;;;19.98;100.00;100211.28;5001130;28;20133;-82
2022/09/12 03:06:50;;;;;;;7.85;7.05;;;;;;;19.84;100.00;100209.31;5014046;28;20018;-82
2022/09/12 03:09:23;;;;;;;10.48;7.50;;;;;;;19.89;100.00;100210.47;5013886;28;20121;-82
2022/09/12 03:12:09;;;;;;;12.20;8.32;;;;;;;20.05;100.00;100214.94;5012867;28;20025;-82
2022/09/12 03:14:51;;;;;;;12.02;8.90;;;;;;;20.07;100.00;100204.13;4991580;28;20041;-82
2022/09/12 03:17:44;;;;;;;9.88;8.27;;;;;;;20.25;100.00;100209.22;5013895;28;20033;-82
2022/09/12 03:20:15;;;;;;;12.38;8.25;;;;;;;20.38;100.00;100206.84;5009153;28;20554;-82
2022/09/12 03:22:50;;;;;;;;;;;;;;;20.43;100.00;100203.66;5014132;28;20026;-82
2022/09/12 03:25:17;;;;;;;9.48;5.93;;;;;;;20.43;100.00;100204.47;5013526;28;19919;-82
2022/09/12 03:27:56;;;;;;;9.02;6.18;;;;;;;20.49;100.00;100202.94;5013448;28;20029;-82
2022/09/12 03:30:22;;;;;;;7.03;5.82;;;;;;;20.49;100.00;100193.09;4999059;28;20037;-82
2022/09/12 03:32:51;;;;;;;8.18;6.30;;;;;;;20.52;100.00;100187.44;4993994;28;20018;-82
2022/09/12 03:35:19;;;;;;;13.15;8.32;;;;;;;20.56;100.00;100183.41;5013335;28;20022;-82
2022/09/12 03:37:46;;;;;;;9.93;7.78;;;;;;;20.58;100.00;100177.91;5013229;28;20077;-82
2022/09/12 03:40:11;;;;;;;12.82;6.85;;;;;;;20.59;100.00;100176.91;5013154;28;20026;-82
2022/09/12 03:42:38;;;;;;;6.88;5.82;;;;;;;20.53;100.00;100178.41;5013483;28;20026;-82
2022/09/12 03:45:07;;;;;;;7.38;5.50;;;;;;;20.45;100.00;100175.78;4999161;28;20038;-82
2022/09/12 03:47:32;;;;;;;5.13;4.63;;;;;;;20.46;100.00;100177.47;5010116;28;20037;-83
2022/09/12 03:49:58;;;;;;;8.05;5.70;;;;;;;20.40;100.00;100172.84;5013137;28;20400;-82
2022/09/12 03:52:23;;;;;;;8.05;5.95;;;;;;;20.33;100.00;100171.84;5006826;28;20344;-82
2022/09/12 03:54:49;;;;;;;7.18;4.97;;;;;;;20.36;100.00;100166.19;5001316;28;20026;-82
2022/09/12 03:57:14;;;;;;;10.30;5.90;;;;;;;20.30;100.00;100173.03;5012852;28;20041;-82
2022/09/12 03:59:40;;;;;;;10.60;6.40;;;;;;;20.19;100.00;100171.56;5012940;28;20026;-82
2022/09/12 04:02:05;;;;;;;8.75;6.00;;;;;;;20.30;100.00;100172.19;5012913;28;20030;-82
2022/09/12 04:04:31;;;;;;;7.28;6.15;;;;;;;20.26;100.00;100157.53;5012024;28;20049;-82
2022/09/12 04:06:56;;;;;;;11.63;7.22;;;;;;;20.37;100.00;100151.84;5012830;28;20033;-82
2022/09/12 04:09:22;;;;;;;8.18;6.10;;;;;;;20.41;100.00;100159.31;5011830;28;20033;-82
2022/09/12 04:11:47;;;;;;;10.70;6.13;;;;;;;20.48;100.00;100156.78;5012689;28;20030;-82
2022/09/12 04:14:12;;;;;;;9.75;6.32;;;;;;;20.59;100.00;100156.41;5012597;28;20025;-82
2022/09/12 04:16:38;;;;;;;7.68;6.28;;;;;;;20.60;100.00;100152.75;5012469;28;20085;-82
2022/09/12 04:19:03;;;;;;;7.68;4.72;;;;;;;20.60;100.00;100136.75;5003490;28;20393;-82
2022/09/12 04:21:29;;;;;;;9.93;6.22;;;;;;;20.50;100.00;100144.09;4992776;28;20022;-82
2022/09/12 04:23:55;;;;;;;8.77;5.70;;;;;;;20.54;100.00;100139.25;5004434;28;20057;-82
2022/09/12 04:26:21;;;;;;;5.55;4.97;;;;;;;20.47;100.00;100135.63;5012586;28;20072;-82
2022/09/12 04:28:47;;;;;;;8.13;5.63;;;;;;;20.44;100.00;100141.28;5012404;28;20033;-82
2022/09/12 04:31:16;;;;;;;7.80;5.28;;;;;;;20.47;100.00;100141.78;5012251;28;20041;-82
2022/09/12 04:33:42;;;;;;;7.55;5.28;;;;;;;20.44;100.00;100131.47;5012036;28;20518;-82
2022/09/12 04:36:13;;;;;;;7.78;5.60;;;;;;;20.43;100.00;100129.81;5012249;28;20033;-82
2022/09/12 04:38:38;;;;;;;5.25;4.35;;;;;;;20.40;100.00;100133.66;5011257;28;20075;-82
2022/09/12 04:41:12;;;;;;;6.63;4.80;;;;;;;20.35;100.00;100119.19;5012304;28;20105;-82
2022/09/12 04:43:38;;;;;;;6.35;4.32;;;;;;;20.25;100.00;100107.91;5012308;28;20045;-82
2022/09/12 04:46:05;;;;;;;4.87;4.30;;;;;;;20.20;100.00;100119.94;5012267;28;20061;-82
2022/09/12 04:48:30;;;;;;;5.20;4.10;;;;;;;20.16;100.00;100113.28;5011950;28;20117;-82
2022/09/12 04:51:19;;;;;;;5.20;3.60;;;;;;;20.07;100.00;100118.81;5012269;28;20101;-82
2022/09/12 04:53:48;;;;;;;7.97;5.20;;;;;;;19.94;100.00;100124.69;5006207;28;20032;-82
2022/09/12 04:56:14;;;;;;;6.53;4.50;;;;;;;19.98;100.00;100120.69;5012015;28;20280;-82
2022/09/12 04:58:39;;;;;;;5.13;3.67;;;;;;;20.17;100.00;100114.13;5012073;28;20743;-82
2022/09/12 05:01:13;;;;;;;6.18;3.50;;;;;;;20.19;100.00;100112.94;5012171;28;20076;-82
2022/09/12 05:03:39;;;;;;;5.38;4.05;;;;;;;20.15;100.00;100124.13;5011666;28;20376;-82
2022/09/12 05:06:10;;;;;;;5.95;4.32;;;;;;;20.11;100.00;100120.97;5012112;28;20041;-82
2022/09/12 05:08:36;;;;;;;6.45;5.05;;;;;;;20.05;100.00;100128.84;5010975;28;20022;-82
2022/09/12 05:11:04;;;;;;;8.60;4.78;;;;;;;20.11;100.00;100125.47;5012001;28;20523;-82
2022/09/12 05:13:30;;;;;;;7.30;4.97;;;;;;;20.16;100.00;100133.75;5012042;28;20014;-82
2022/09/12 05:15:57;;;;;;;7.20;4.95;;;;;;;20.16;100.00;100128.44;5011925;28;20040;-82
2022/09/12 05:18:23;;;;;;;5.32;4.32;;;;;;;20.30;100.00;100130.38;5011357;28;20455;-82
2022/09/12 05:20:49;;;;;;;7.85;5.05;;;;;;;20.24;100.00;100127.56;5011731;28;20105;-82
2022/09/12 05:23:14;;;;;;;8.93;5.90;;;;;;;20.20;100.00;100127.06;5000843;28;20054;-82
2022/09/12 05:25:47;;;;;;;11.98;5.75;;;;;;;20.19;100.00;100139.59;4992260;28;20026;-82
2022/09/12 05:28:12;;;;;;;6.28;4.75;;;;;;;20.28;100.00;100132.41;4992217;28;20434;-82
2022/09/12 05:30:38;;;;;;;6.00;4.10;;;;;;;20.27;100.00;100129.91;4992162;28;20050;-82
2022/09/12 05:33:03;;;;;;;6.40;3.85;;;;;;;20.14;100.00;100133.97;5009982;28;20110;-82
2022/09/12 05:35:29;;;;;;;9.55;5.20;;;;;;;19.92;100.00;100132.03;5014129;28;20030;-82
2022/09/12 05:37:54;;;;;;;6.60;4.57;;;;;;;19.84;100.00;100132.06;5013602;28;20087;-82
2022/09/12 05:40:20;;;;;;;3.88;3.45;;;;;;;19.88;100.00;100133.38;5015375;28;20034;-82
2022/09/12 05:42:45;;;;;;;9.50;4.45;;;;;;;19.78;100.00;100134.38;5015645;28;20133;-82
2022/09/12 05:45:11;;;;;;;5.60;4.43;;;;;;;19.74;100.00;100135.75;5015438;28;20473;-82
2022/09/12 05:47:36;;;;;;;7.57;4.20;;;;;;;19.79;100.00;100135.25;5015157;28;20128;-82
2022/09/12 05:50:01;;;;;;;7.22;4.97;;;;;;;19.69;100.00;100137.22;5015309;28;20109;-82
2022/09/12 05:52:27;;;;;;;7.55;4.85;;;;;;;19.64;100.00;100143.06;5006715;28;20026;-82
2022/09/12 05:54:52;;;;;;;5.65;4.32;;;;;;;19.79;100.00;100143.25;4995545;28;20507;-82
2022/09/12 05:57:17;;;;;;;10.90;5.65;;;;;;;19.61;100.00;100151.41;4995498;28;20026;-82
2022/09/12 05:59:43;;;;;;;7.35;4.60;;;;;;;19.70;100.00;100147.69;4995717;28;20377;-82
2022/09/12 06:02:09;;;;;;;8.77;5.90;;;;;;;19.73;100.00;100151.91;5010274;28;20050;-82
2022/09/12 06:04:35;;;;;;;8.07;6.43;;;;;;;19.80;100.00;100151.03;5015071;28;20029;-82
2022/09/12 06:07:00;;;;;;;9.45;5.55;;;;;;;19.98;100.00;100144.66;5013847;28;20024;-82
2022/09/12 06:09:26;;;;;;;8.13;5.85;;;;;;;20.09;100.00;100141.63;5014777;28;20117;-82
2022/09/12 06:11:52;;;;;;;6.32;5.38;;;;;;;20.20;100.00;100138.59;5014426;28;20037;-82
2022/09/12 06:14:18;;;;;;;7.85;6.13;;;;;;;20.23;100.00;100140.06;5010032;28;20040;-82
2022/09/12 06:16:44;;;;;;;8.18;5.45;;;;;;;20.31;100.00;100140.03;5014557;28;20034;-82
2022/09/12 06:19:20;;;;;;;7.80;4.95;;;;;;;20.52;100.00;100144.75;5014582;28;20030;-82
2022/09/12 06:21:48;;;;;;;11.02;6.10;;;;;;;20.51;100.00;100144.94;5007568;28;20037;-82
2022/09/12 06:24:14;;;;;;;9.20;5.70;;;;;;;20.62;100.00;100141.91;5007079;28;20026;-82
2022/09/12 06:26:40;;;;;;;12.45;4.97;;;;;;;20.75;100.00;100139.50;5013867;28;20022;-82
2022/09/12 06:29:06;;;;;;;5.57;4.40;;;;;;;20.90;100.00;100144.88;5013864;28;20076;-82
2022/09/12 06:31:36;;;;;;;7.45;4.10;;;;;;;21.04;100.00;100137.94;5014585;28;20026;-82
2022/09/12 06:34:07;;;;;;;7.47;5.05;;;;;;;21.09;100.00;100140.91;5013924;28;20337;-82
2022/09/12 06:36:37;;;;;;;9.02;5.35;;;;;;;21.11;100.00;100136.22;5006649;28;20041;-82
2022/09/12 06:39:17;;;;;;;6.35;5.10;;;;;;;21.22;100.00;100134.13;4994879;28;20026;-82
2022/09/12 06:41:42;;;;;;;6.30;4.53;;;;;;;21.26;100.00;100144.25;4995297;28;20038;-83
2022/09/12 06:44:11;;;;;;;7.18;4.47;;;;;;;21.34;100.00;100149.50;5001719;28;20030;-83
2022/09/12 06:46:37;;;;;;;8.80;5.43;;;;;;;21.39;100.00;100151.66;4993903;28;20023;-83
2022/09/12 06:49:02;;;;;;;8.82;5.40;;;;;;;21.47;100.00;100142.78;5000367;28;20030;-83
2022/09/12 06:51:28;;;;;;;8.43;4.70;;;;;;;21.68;100.00;100144.72;4994750;28;20022;-83
2022/09/12 06:53:55;;;;;;;13.23;5.47;;;;;;;21.85;100.00;100146.22;5003638;28;20508;-84
2022/09/12 06:56:26;;;;;;;6.45;4.25;;;;;;;22.21;100.00;100156.13;5012921;28;20079;-83
2022/09/12 06:58:54;;;;;;;11.03;5.00;;;;;;;22.41;100.00;100161.75;5012550;28;20097;-83
2022/09/12 07:01:23;;;;;;;;;;;;;;;22.57;100.00;100166.91;5014383;28;20364;-83
2022/09/12 07:03:54;;;;;;;6.32;5.15;;;;;;;22.62;100.00;100158.31;5010693;28;19960;-83
2022/09/12 07:06:23;;;;;;;13.73;7.97;;;;;;;22.58;100.00;100154.34;5013971;28;20026;-83
2022/09/12 07:08:49;;;;;;;7.90;5.47;;;;;;;22.59;100.00;100156.03;5012670;28;20475;-82
2022/09/12 07:11:23;;;;;;;8.20;5.47;;;;;;;22.65;100.00;100151.75;4993932;28;20117;-83
2022/09/12 07:13:53;;;;;;;7.70;4.68;;;;;;;22.74;100.00;100156.78;5001650;28;20105;-83
2022/09/12 07:16:19;;;;;;;9.07;6.38;;;;;;;22.76;100.00;100172.66;5013104;28;20026;-83
2022/09/12 07:18:49;;;;;;;9.25;5.90;;;;;;;23.00;100.00;100163.44;4999848;28;20038;-83
2022/09/12 07:21:15;;;;;;;10.48;6.15;;;;;;;23.19;100.00;100159.31;5002264;28;20087;-83
2022/09/12 07:23:41;;;;;;;10.02;5.22;;;;;;;23.42;100.00;100158.25;5013384;28;20033;-83
2022/09/12 07:26:09;;;;;;;8.10;5.00;;;;;;;23.62;100.00;100148.53;5006031;28;20018;-83
2022/09/12 07:28:35;;;;;;;;;;;;;;;23.83;98.60;100144.94;5007773;28;19917;-83
2022/09/12 07:31:07;;;;;;;;;;;;;;;23.76;99.36;100147.56;5007181;28;19924;-83
2022/09/12 07:33:33;;;;;;;;;;;;;;;23.73;97.67;100149.81;4998645;28;20303;-83
2022/09/12 07:36:02;;;;;;;;;;;;;;;23.78;98.90;100147.41;4999185;28;19924;-83
2022/09/12 07:38:28;;;;;;;;;;;;;;;23.83;97.43;100141.44;5013340;28;19917;-83
2022/09/12 07:40:53;;;;;;;6.55;4.03;;;;;;;23.85;98.24;100139.41;5013641;28;19920;-83
2022/09/12 07:43:18;;;;;;;10.48;4.80;;;;;;;23.89;98.06;100144.16;5013183;28;20026;-83
2022/09/12 07:45:44;;;;;;;8.93;5.22;;;;;;;23.96;96.33;100133.50;5009227;28;20480;-83
2022/09/12 07:48:09;;;;;;;14.48;4.50;;;;;;;24.15;96.90;100129.22;5013012;28;20048;-83
2022/09/12 07:50:35;;;;;;;7.30;4.68;;;;;;;24.47;95.44;100135.75;5013322;28;20496;-83
2022/09/12 07:53:02;;;;;;;7.95;4.35;;;;;;;25.01;94.26;100130.53;5013442;28;20456;-83
2022/09/12 07:55:28;;;;;;;7.63;4.63;;;;;;;25.35;89.32;100131.38;5013085;28;20109;-84
2022/09/12 07:57:54;;;;;;;6.00;4.57;;;;;;;25.77;89.47;100131.91;5001576;28;20128;-83
2022/09/12 08:00:20;;;;;;;11.60;4.80;;;;;;;25.90;85.47;100130.06;4997219;28;20430;-83
2022/09/12 08:02:50;;;;;;;7.78;4.43;;;;;;;26.12;86.77;100135.16;5011590;28;20030;-83
2022/09/12 08:05:15;;;;;;;12.18;4.53;;;;;;;26.41;84.49;100131.09;5012940;28;20030;-83
2022/09/12 08:07:40;;;;;;;5.72;3.22;;;;;;;26.28;85.33;100131.16;5012812;28;20361;-83
2022/09/12 08:10:06;;;;;;;8.43;4.50;;;;;;;25.70;85.13;100122.00;5011514;28;20080;-83
2022/09/12 08:12:33;;;;;;;8.65;4.05;;;;;;;25.79;84.10;100127.16;5011846;28;20121;-82
2022/09/12 08:14:59;;;;;;;6.68;3.35;;;;;;;25.82;84.31;100118.69;4997184;28;20424;-83
2022/09/12 08:17:24;;;;;;;;;;;;;;;25.60;85.38;100124.31;5012853;28;20080;-82
2022/09/12 08:19:50;;;;;;;;;;;;;;;25.56;84.96;100120.38;5013192;28;19913;-82
2022/09/12 08:22:15;;;;;;;;;;;;;;;25.59;84.33;100109.19;5008753;28;19921;-82
2022/09/12 08:24:40;;;;;;;;;;;;;;;25.55;85.22;100091.84;5013033;28;19959;-82
2022/09/12 08:27:06;;;;;;;;;;;;;;;25.64;84.01;100095.97;5012883;28;19971;-83
2022/09/12 08:29:31;;;;;;;;;;;;;;;25.41;85.79;100115.22;5012701;28;19917;-83
2022/09/12 08:31:56;;;;;;;;;;;;;;;25.33;86.82;100116.28;5012643;28;19917;-83
2022/09/12 08:34:23;;;;;;;;;;;;;;;25.48;85.53;100109.88;5011610;28;19979;-83
2022/09/12 08:36:49;;;;;;;;;;;;;;;25.63;84.60;100112.31;5011112;28;20414;-83
2022/09/12 08:39:14;;;;;;;;;;;;;;;25.85;83.56;100104.78;5012593;28;20016;-83
2022/09/12 08:41:44;;;;;;;;;;;;;;;26.08;82.18;100105.16;5012737;28;19920;-83
2022/09/12 08:44:18;;;;;;;;;;;;;;;26.37;81.22;100107.53;5012593;28;19913;-83
2022/09/12 08:47:02;;;;;;;;;;;;;;;26.97;77.92;100099.06;5012666;28;20004;-83
2022/09/12 08:49:47;;;;;;;;;;;;;;;27.95;75.15;100111.84;5012325;28;19920;-83
2022/09/12 08:52:25;;;;;;;;;;;;;;;27.82;72.15;100114.66;4988122;28;20011;-83
2022/09/12 08:54:50;;;;;;;;;;;;;;;30.81;61.89;100118.75;4993406;28;20288;-83
2022/09/12 08:57:17;;;;;;;;;;;;;;;29.86;61.50;100118.28;4992778;28;19920;-83
2022/09/12 08:59:44;;;;;;;;;;;;;;;31.03;56.09;100116.16;4992834;28;19918;-83
2022/09/12 09:02:28;;;;;;;;;;;;;;;31.06;55.86;100115.63;4992947;28;19929;-84
2022/09/12 09:04:58;;;;;;;;;;;;;;;31.15;54.72;100129.63;4992630;28;19925;-83
2022/09/12 09:07:24;;;;;;;;;;;;;;;30.46;55.54;100118.94;5000502;28;20427;-84
2022/09/12 09:10:09;;;;;;;;;;;;;;;30.66;56.67;100126.59;5001390;28;19946;-84
2022/09/12 09:12:37;;;;;;;;;;;;;;;30.95;56.14;100120.09;5005603;28;19918;-83
2022/09/12 09:15:10;;;;;;;;;;;;;;;34.01;48.79;100113.75;5016357;28;19964;-84
2022/09/12 09:17:40;;;;;;;;;;;;;;;36.38;40.81;100115.16;5016150;28;19918;-84
2022/09/12 09:20:12;;;;;;;;;;;;;;;36.93;39.12;100104.94;5016457;28;20012;-84
2022/09/12 09:22:50;;;;;;;;;;;;;;;40.80;33.30;100113.66;4997268;28;19917;-84
2022/09/12 09:25:20;;;;;;;;;;;;;;;44.57;27.04;100110.13;4997377;28;19930;-84
2022/09/12 09:27:49;;;;;;;;;;;;;;;46.29;25.03;100109.38;4999362;28;20016;-85
2022/09/12 09:30:18;;;;;;;;;;;;;;;47.90;22.80;100101.56;5004993;28;19917;-84
2022/09/12 09:32:46;;;;;;;;;;;;;;;47.02;23.01;100101.84;4996440;28;19913;-84
2022/09/12 09:35:15;;;;;;;;;;;;;;;47.54;22.77;100099.91;4997425;28;19924;-84
2022/09/12 09:37:59;;;;;;;;;;;;;;;46.44;23.38;100105.88;5012548;28;19917;-84
2022/09/12 09:40:27;;;;;;;;;;;;;;;48.86;20.77;100101.06;5014872;28;20007;-84
2022/09/12 09:43:21;;;;;;;;;;;;;;;45.43;23.75;100090.13;5015162;28;19917;-84
2022/09/12 09:45:46;;;;;;;;;;;;;;;47.06;22.25;100084.09;5001074;28;20394;-84
2022/09/12 09:48:16;;;;;;;;;;;;;;;45.52;23.62;100082.47;5015651;28;19913;-84
2022/09/12 09:50:42;;;;;;;;;;;;;;;42.52;27.79;100082.56;5004228;28;19918;-84
2022/09/12 09:53:25;;;;;;;;;;;;;;;40.48;29.36;100076.16;4996108;28;19920;-84
2022/09/12 09:55:52;;;;;;;;;;;;;;;37.99;32.04;100081.34;5007820;28;19922;-84
2022/09/12 09:58:27;;;;;;;;;;;;;;;41.60;29.17;100077.91;5015664;28;20287;-84
2022/09/12 10:00:57;;;;;;;;;;;;;;;45.14;25.13;100083.59;5005122;28;19922;-84
2022/09/12 10:03:30;;;;;;;;;;;;;;;46.43;23.11;100081.22;5015656;28;20280;-84
2022/09/12 10:06:14;;;;;;;;;;;;;;;45.37;24.24;100078.44;5004147;28;20375;-85
2022/09/12 10:08:39;;;;;;;;;;;;;;;46.02;23.16;100081.22;4995739;28;19914;-84
2022/09/12 10:11:05;;;;;;;;;;;;;;;46.90;22.69;100077.72;5007524;28;19925;-84
2022/09/12 10:13:41;;;;;;;;;;;;;;;47.26;22.79;100079.44;5015466;28;19920;-85
2022/09/12 10:16:17;;;;;;;;;;;;;;;47.73;22.11;100082.50;5005986;28;19925;-85
2022/09/12 10:18:42;;;;;;;;;;;;;;;48.57;20.99;100078.28;5015368;28;20291;-85
2022/09/12 10:21:15;;;;;;;;;;;;;;;47.64;21.43;100072.41;5014223;28;19925;-85
2022/09/12 10:23:41;;;;;;;;;;;;;;;47.50;21.96;100076.78;5015090;28;19999;-85
2022/09/12 10:26:11;;;;;;;;;;;;;;;47.66;21.83;100078.41;5004958;28;20015;-85
2022/09/12 10:28:41;;;;;;;;;;;;;;;49.44;21.17;100081.34;4995425;28;19988;-85
2022/09/12 10:31:07;;;;;;;;;;;;;;;47.42;22.35;100084.19;5003172;28;19948;-85
2022/09/12 10:33:40;;;;;;;;;;;;;;;47.51;22.32;100083.97;5008674;28;19917;-85
2022/09/12 10:36:06;;;;;;;;;;;;;;;48.72;21.20;100091.28;5005239;28;20406;-85
2022/09/12 10:38:31;;;;;;;;;;;;;;;48.50;21.22;100078.13;4995252;28;19961;-85
2022/09/12 10:41:02;;;;;;;;;;;;;;;49.06;20.95;100085.09;5011946;28;19956;-85
2022/09/12 10:43:33;;;;;;;;;;;;;;;48.91;20.56;100081.28;5014638;28;20279;-85
2022/09/12 10:46:18;;;;;;;;;;;;;;;45.73;23.35;100087.91;5009929;28;19920;-85
2022/09/12 10:48:44;;;;;;;;;;;;;;;45.53;22.94;100087.66;5014661;28;19913;-85
2022/09/12 10:51:29;;;;;;;;;;;;;;;46.07;23.74;100085.75;5013753;28;19919;-85
2022/09/12 10:53:56;;;;;;;;;;;;;;;44.80;24.24;100082.84;5014656;28;19964;-85
2022/09/12 10:56:32;;;;;;;;;;;;;;;45.35;24.54;100079.97;5006019;28;19977;-85
2022/09/12 10:59:36;;;;;;;;;;;;;;;47.44;22.57;100073.50;4994849;28;19920;-85
2022/09/12 11:02:01;;;;;;;;;;;;;;;45.45;23.93;100071.16;4987604;28;19913;-85
2022/09/12 11:04:52;;;;;;;;;;;;;;;46.12;23.31;100071.63;4992527;28;20000;-85
2022/09/12 11:07:30;;;;;;;;;;;;;;;44.98;23.92;100074.38;4988503;28;19968;-85
2022/09/12 11:10:11;;;;;;;;;;;;;;;44.09;24.31;100068.06;4994650;28;19917;-85
2022/09/12 11:12:49;;;;;;;;;;;;;;;43.78;24.24;100065.66;5010580;28;19913;-85
2022/09/12 11:15:29;;;;;;;;;;;;;;;44.19;24.42;100061.28;5009964;28;20360;-85
2022/09/12 11:17:57;;;;;;;;;;;;;;;42.29;25.79;100059.03;5002547;28;19925;-85
2022/09/12 11:20:39;;;;;;;;;;;;;;;44.37;24.47;100063.91;5012751;28;19923;-85
2022/09/12 11:23:16;;;;;;;;;;;;;;;42.98;24.54;100058.91;4999686;28;19921;-85
2022/09/12 11:26:00;;;;;;;;;;;;;;;43.13;25.09;100053.94;4994219;28;19914;-85
2022/09/12 11:28:34;;;;;;;;;;;;;;;42.17;25.49;100051.41;5004618;28;20371;-85
2022/09/12 11:31:06;;;;;;;;;;;;;;;40.24;27.66;100054.44;5013942;28;19996;-84
2022/09/12 11:33:42;;;;;;;;;;;;;;;38.18;30.13;100054.78;5006973;28;20359;-84
2022/09/12 11:36:15;;;;;;;;;;;;;;;38.19;30.28;100047.34;5013961;28;20421;-84
2022/09/12 11:38:51;;;;;;;;;;;;;;;38.05;30.89;100044.50;5011839;28;19921;-84
2022/09/12 11:41:19;;;;;;;;;;;;;;;37.45;30.68;100055.97;5010819;28;19918;-85
2022/09/12 11:43:52;;;;;;;;;;;;;;;36.42;31.43;100058.84;5002008;28;19943;-84
2022/09/12 11:46:26;;;;;;;;;;;;;;;36.18;32.29;100054.09;5006502;28;19956;-84
2022/09/12 11:49:14;;;;;;;;;;;;;;;35.87;32.84;100054.22;5013503;28;19914;-84
2022/09/12 11:51:42;;;;;;;;;;;;;;;35.53;33.51;100052.19;5005296;28;19918;-84
2022/09/12 11:54:13;;;;;;;;;;;;;;;35.00;33.78;100053.66;4993890;28;19913;-84
2022/09/12 11:56:44;;;;;;;;;;;;;;;34.72;34.76;100048.50;4994644;28;20375;-84